createdAt,value
2019-05-26T00:02:52.101Z,101256.12
2019-05-26T00:07:59.579Z,101242.00
2019-05-26T00:13:06.620Z,101242.00
2019-05-26T00:18:15.883Z,101245.62
2019-05-26T00:23:27.414Z,101245.62
2019-05-26T00:28:34.611Z,101240.09
2019-05-26T00:33:41.917Z,101240.67
2019-05-26T00:38:48.712Z,101240.67
2019-05-26T00:43:55.559Z,101222.39
2019-05-26T00:49:02.574Z,101222.39
2019-05-26T00:54:09.450Z,101218.53
2019-05-26T00:59:16.453Z,101218.53
2019-05-26T01:04:23.456Z,101221.05
2019-05-26T01:09:30.563Z,101221.33
2019-05-26T01:14:39.646Z,101212.73
2019-05-26T01:25:18.632Z,101218.32
2019-05-26T01:30:39.255Z,101219.19
2019-05-26T01:35:47.312Z,101219.19
2019-05-26T01:40:54.443Z,101217.27
2019-05-26T01:46:00.307Z,101218.09
2019-05-26T01:51:07.414Z,101225.62
2019-05-26T01:56:13.308Z,101218.96
2019-05-26T02:01:20.608Z,101217.59
2019-05-26T02:06:28.259Z,101219.27
2019-05-26T02:11:42.344Z,101219.27
2019-05-26T02:16:50.445Z,101216.81
2019-05-26T02:21:59.534Z,101216.81
2019-05-26T02:32:41.389Z,101219.05
2019-05-26T02:37:54.238Z,101208.77
2019-05-26T02:43:01.896Z,101214.89
2019-05-26T02:48:08.702Z,101214.89
2019-05-26T02:53:24.575Z,101219.32
2019-05-26T02:58:37.435Z,101227.91
2019-05-26T03:03:45.417Z,101227.91
2019-05-26T03:08:54.871Z,101220.70
2019-05-26T03:14:07.297Z,101225.70
2019-05-26T03:19:20.282Z,101222.63
2019-05-26T03:24:33.457Z,101222.94
2019-05-26T03:29:40.564Z,101220.44
2019-05-26T03:34:48.262Z,101217.66
2019-05-26T03:40:01.012Z,101222.64
2019-05-26T03:45:09.365Z,101214.31
2019-05-26T03:50:19.547Z,101216.82
2019-05-26T03:55:29.716Z,101225.41
2019-05-26T04:00:39.612Z,101222.36
2019-05-26T04:05:48.334Z,101213.95
2019-05-26T04:10:55.533Z,101213.95
2019-05-26T04:16:02.606Z,101218.34
2019-05-26T04:21:10.592Z,101215.78
2019-05-26T04:26:17.572Z,101215.51
2019-05-26T04:31:24.581Z,101215.51
2019-05-26T04:36:33.505Z,101210.41
2019-05-26T04:41:45.965Z,101210.41
2019-05-26T04:46:59.034Z,101198.33
2019-05-26T04:52:13.325Z,101198.33
2019-05-26T04:57:20.411Z,101186.91
2019-05-26T05:02:27.718Z,101195.70
2019-05-26T05:07:34.589Z,101195.86
2019-05-26T05:12:41.706Z,101198.30
2019-05-26T05:17:48.584Z,101198.30
2019-05-26T05:22:55.526Z,101194.25
2019-05-26T05:28:02.560Z,101194.25
2019-05-26T05:34:10.581Z,101179.72
2019-05-26T05:39:17.428Z,101172.28
2019-05-26T05:44:24.432Z,101172.28
2019-05-26T05:49:31.473Z,101179.16
2019-05-26T05:54:39.422Z,101165.86
2019-05-26T05:59:47.595Z,101163.03
2019-05-26T06:04:54.565Z,101157.80
2019-05-26T06:10:01.444Z,101160.27
2019-05-26T06:15:11.018Z,101160.27
2019-05-26T06:20:19.058Z,101149.48
2019-05-26T06:25:26.433Z,101142.20
2019-05-26T06:30:35.029Z,101145.05
2019-05-26T06:35:42.413Z,101146.28
2019-05-26T06:40:49.509Z,101140.83
2019-05-26T06:45:56.580Z,101145.05
2019-05-26T06:51:03.516Z,101138.56
2019-05-26T06:56:10.552Z,101138.56
2019-05-26T07:01:17.692Z,101144.54
2019-05-26T07:06:24.449Z,101121.39
2019-05-26T07:11:31.789Z,101121.39
2019-05-26T07:16:39.117Z,101124.98
2019-05-26T07:21:47.592Z,101124.58
2019-05-26T07:26:55.579Z,101117.45
2019-05-26T07:32:02.508Z,101101.29
2019-05-26T07:37:09.576Z,101101.29
2019-05-26T07:42:16.555Z,101091.77
2019-05-26T07:47:23.574Z,101081.45
2019-05-26T07:52:31.450Z,101085.77
2019-05-26T07:57:39.032Z,101082.16
2019-05-26T08:02:46.436Z,101081.27
2019-05-26T08:07:53.539Z,101073.95
2019-05-26T08:13:00.435Z,101077.22
2019-05-26T08:18:08.552Z,101079.81
2019-05-26T08:23:15.670Z,101079.81
2019-05-26T08:28:22.594Z,101078.06
2019-05-26T08:33:29.865Z,101056.30
2019-05-26T08:38:36.579Z,101056.30
2019-05-26T08:43:43.456Z,101031.16
2019-05-26T08:48:50.443Z,101031.16
2019-05-26T08:53:57.571Z,101025.88
2019-05-26T08:59:04.442Z,101001.11
2019-05-26T09:04:11.431Z,101002.25
2019-05-26T09:09:18.526Z,101002.25
2019-05-26T09:14:25.650Z,101000.72
2019-05-26T09:19:32.585Z,100993.77
2019-05-26T09:24:39.505Z,100975.47
2019-05-26T09:29:46.476Z,100970.98
2019-05-26T09:34:53.467Z,100970.98
2019-05-26T09:40:00.591Z,100965.94
2019-05-26T09:45:10.940Z,100963.98
2019-05-26T09:50:19.609Z,100963.98
2019-05-26T09:55:26.592Z,100950.44
2019-05-26T10:00:35.405Z,100950.44
2019-05-26T10:05:45.057Z,100941.41
2019-05-26T10:10:52.241Z,100925.34
2019-05-26T10:15:59.615Z,100923.20
2019-05-26T10:21:08.879Z,100934.02
2019-05-26T10:26:15.446Z,100915.69
2019-05-26T10:31:22.553Z,100915.69
2019-05-26T10:36:29.647Z,100920.08
2019-05-26T10:41:37.652Z,100920.08
2019-05-26T10:46:44.633Z,100893.03
2019-05-26T10:51:51.556Z,100886.62
2019-05-26T10:56:58.441Z,100886.62
2019-05-26T11:02:05.569Z,100898.81
2019-05-26T11:07:12.444Z,100891.88
2019-05-26T11:12:19.457Z,100870.14
2019-05-26T11:17:26.473Z,100871.72
2019-05-26T11:22:33.583Z,100860.52
2019-05-26T11:27:40.459Z,100850.92
2019-05-26T11:32:47.579Z,100850.92
2019-05-26T11:37:54.477Z,100830.08
2019-05-26T11:43:14.061Z,100830.08
2019-05-26T11:48:10.423Z,100833.08
2019-05-26T11:53:17.424Z,100831.58
2019-05-26T11:58:24.431Z,100823.22
2019-05-26T12:03:31.563Z,100817.20
2019-05-26T12:08:38.577Z,100794.27
2019-05-26T12:13:46.473Z,100794.27
2019-05-26T12:18:53.551Z,100785.01
2019-05-26T12:24:00.453Z,100785.01
2019-05-26T12:29:07.566Z,100803.95
2019-05-26T12:34:14.590Z,100779.55
2019-05-26T12:39:21.569Z,100769.14
2019-05-26T12:44:28.599Z,100772.63
2019-05-26T12:49:35.572Z,100778.84
2019-05-26T12:54:42.586Z,100774.64
2019-05-26T12:59:49.552Z,100766.40
2019-05-26T13:04:56.568Z,100766.40
2019-05-26T13:10:03.558Z,100761.60
2019-05-26T13:15:12.114Z,100758.98
2019-05-26T13:20:19.934Z,100752.22
2019-05-26T13:25:27.135Z,100752.22
2019-05-26T13:30:35.571Z,100743.75
2019-05-26T13:35:42.583Z,100742.29
2019-05-26T13:40:49.474Z,100757.02
2019-05-26T13:45:56.574Z,100757.02
2019-05-26T13:51:03.583Z,100747.11
2019-05-26T13:56:10.591Z,100745.70
2019-05-26T14:01:17.575Z,100741.48
2019-05-26T14:06:25.597Z,100733.87
2019-05-26T14:11:32.620Z,100725.69
2019-05-26T14:16:40.251Z,100722.02
2019-05-26T14:21:47.448Z,100722.02
2019-05-26T14:26:54.567Z,100735.72
2019-05-26T14:32:01.571Z,100724.86
2019-05-26T14:37:08.578Z,100725.94
2019-05-26T14:42:18.338Z,100732.06
2019-05-26T14:47:24.506Z,100732.06
2019-05-26T14:52:31.645Z,100721.27
2019-05-26T14:57:39.606Z,100728.69
2019-05-26T15:03:08.626Z,100721.55
2019-05-26T15:08:15.576Z,100693.06
2019-05-26T15:13:22.602Z,100701.42
2019-05-26T15:18:29.612Z,100703.44
2019-05-26T15:23:36.487Z,100704.28
2019-05-26T15:28:43.472Z,100704.28
2019-05-26T15:33:50.575Z,100707.97
2019-05-26T15:38:57.602Z,100698.00
2019-05-26T15:44:04.590Z,100703.41
2019-05-26T15:49:11.584Z,100703.41
2019-05-26T15:54:18.574Z,100701.36
2019-05-26T15:59:25.568Z,100697.78
2019-05-26T16:04:32.461Z,100697.78
2019-05-26T16:09:39.494Z,100685.22
2019-05-26T16:14:46.607Z,100677.08
2019-05-26T16:19:53.606Z,100692.38
2019-05-26T16:25:00.595Z,100678.63
2019-05-26T16:30:08.926Z,100672.65
2019-05-26T16:35:16.494Z,100672.65
2019-05-26T16:45:56.747Z,100658.53
2019-05-26T16:51:03.602Z,100666.73
2019-05-26T16:56:10.579Z,100659.33
2019-05-26T17:01:17.554Z,100659.33
2019-05-26T17:06:24.566Z,100641.02
2019-05-26T17:11:31.577Z,100643.88
2019-05-26T17:16:39.029Z,100643.88
2019-05-26T17:21:46.617Z,100634.36
2019-05-26T17:26:53.475Z,100630.45
2019-05-26T17:32:00.561Z,100630.45
2019-05-26T17:37:07.505Z,100622.80
2019-05-26T17:42:14.557Z,100612.38
2019-05-26T17:47:29.786Z,100610.63
2019-05-26T17:52:30.509Z,100603.28
2019-05-26T17:57:37.475Z,100606.64
2019-05-26T18:02:44.575Z,100603.67
2019-05-26T18:07:51.570Z,100593.16
2019-05-26T18:12:58.453Z,100593.16
2019-05-26T18:18:05.471Z,100600.51
2019-05-26T18:24:58.352Z,100592.27
2019-05-26T18:30:04.699Z,100594.91
2019-05-26T18:35:12.258Z,100601.40
2019-05-26T18:40:20.056Z,100601.40
2019-05-26T18:45:27.421Z,100594.89
2019-05-26T18:50:35.550Z,100596.29
2019-05-26T18:55:42.571Z,100601.62
2019-05-26T19:00:49.680Z,100604.00
2019-05-26T19:05:56.625Z,100602.41
2019-05-26T19:11:04.591Z,100597.14
2019-05-26T19:16:11.483Z,100593.76
2019-05-26T19:21:18.614Z,100593.76
2019-05-26T19:26:25.610Z,100602.20
2019-05-26T19:31:32.470Z,100602.06
2019-05-26T19:36:39.464Z,100607.45
2019-05-26T19:41:46.508Z,100607.45
2019-05-26T19:46:53.479Z,100599.76
2019-05-26T19:52:00.481Z,100601.58
2019-05-26T19:57:07.590Z,100599.60
2019-05-26T20:02:18.626Z,100590.00
2019-05-26T20:07:23.592Z,100590.00
2019-05-26T20:12:30.463Z,100585.06
2019-05-26T20:17:37.478Z,100576.38
2019-05-26T20:22:44.570Z,100576.38
2019-05-26T20:27:51.488Z,100572.24
2019-05-26T20:32:58.593Z,100572.24
2019-05-26T20:38:05.587Z,100574.62
2019-05-26T20:43:12.463Z,100564.05
2019-05-26T20:48:19.459Z,100564.05
2019-05-26T20:53:26.448Z,100561.28
2019-05-26T20:58:33.434Z,100561.02
2019-05-26T21:03:40.544Z,100564.94
2019-05-26T21:08:47.570Z,100557.71
2019-05-26T21:13:54.500Z,100562.55
2019-05-26T21:19:01.466Z,100562.55
2019-05-26T21:24:08.463Z,100560.34
2019-05-26T21:29:15.534Z,100558.14
2019-05-26T21:34:27.083Z,100558.49
2019-05-26T21:39:34.572Z,100555.23
2019-05-26T21:44:41.476Z,100551.13
2019-05-26T21:49:48.435Z,100558.40
2019-05-26T21:54:55.447Z,100551.35
2019-05-26T22:00:04.244Z,100559.45
2019-05-26T22:05:13.435Z,100559.45
2019-05-26T22:10:20.612Z,100550.69
2019-05-26T22:15:27.600Z,100537.47
2019-05-26T22:20:36.446Z,100537.47
2019-05-26T22:25:43.465Z,100534.78
2019-05-26T22:30:51.740Z,100526.68
2019-05-26T22:35:58.663Z,100523.12
2019-05-26T22:41:05.460Z,100505.33
2019-05-26T22:46:12.459Z,100505.33
2019-05-26T22:54:27.567Z,100494.45
2019-05-26T22:59:34.467Z,100486.77
2019-05-26T23:04:41.580Z,100486.77
2019-05-26T23:09:48.580Z,100475.47
2019-05-26T23:16:02.600Z,100481.14
2019-05-26T23:33:54.595Z,100464.27
2019-05-26T23:41:05.628Z,100460.75
2019-05-26T23:46:12.473Z,100452.27
2019-05-26T23:51:19.545Z,100452.27
2019-05-26T23:56:26.570Z,100453.58
